Time;durP1;ratioP1;P1;durP2;ratioP2;P2;SDS_P1;SDS_P2;PMS_P1;PMS_P2;Temp;Humidity;BMP_temperature;BMP_pressure;BME280_temperature;BME280_humidity;BME280_pressure;Samples;Min_cycle;Max_cycle;Signal;HPM_P1;HPM_P2
2023/12/15 05:02:36;;;;;;;18.70;9.48;;;4.10;99.90;;;;;;4907691;23;20255;-72
2023/12/15 05:05:03;;;;;;;18.98;8.43;;;4.20;99.90;;;;;;4913143;29;20225;-72
2023/12/15 05:07:29;;;;;;;18.45;9.82;;;4.20;99.90;;;;;;4910952;29;20220;-72
2023/12/15 05:09:56;;;;;;;16.58;10.88;;;4.20;99.90;;;;;;4910637;29;20207;-72
2023/12/15 05:12:23;;;;;;;19.33;9.02;;;4.20;99.90;;;;;;4928520;29;20236;-72
2023/12/15 05:14:49;;;;;;;16.55;9.02;;;4.20;99.90;;;;;;4936874;29;20726;-72
2023/12/15 05:17:17;;;;;;;21.90;8.50;;;4.20;99.90;;;;;;4933558;29;20219;-72
2023/12/15 05:19:45;;;;;;;20.73;9.25;;;4.20;99.90;;;;;;4936584;29;20260;-71
2023/12/15 05:22:12;;;;;;;14.55;8.35;;;4.30;99.90;;;;;;4932979;29;20225;-72
2023/12/15 05:24:38;;;;;;;21.30;9.30;;;4.30;99.90;;;;;;4926773;29;20282;-72
2023/12/15 05:27:08;;;;;;;21.38;12.02;;;4.30;99.90;;;;;;4935325;29;20221;-72
2023/12/15 05:29:35;;;;;;;19.02;8.63;;;4.30;99.90;;;;;;4923611;29;20292;-72
2023/12/15 05:32:02;;;;;;;14.10;7.78;;;4.30;99.90;;;;;;4935662;29;20232;-71
2023/12/15 05:34:29;;;;;;;20.55;8.82;;;4.30;99.90;;;;;;4927765;29;20235;-72
2023/12/15 05:36:57;;;;;;;19.73;9.68;;;4.30;99.90;;;;;;4926775;29;20618;-72
2023/12/15 05:39:24;;;;;;;18.58;8.05;;;4.30;99.90;;;;;;4928201;29;20219;-72
2023/12/15 05:41:51;;;;;;;17.80;9.32;;;4.30;99.90;;;;;;4928319;29;20232;-72
2023/12/15 05:44:17;;;;;;;18.27;6.90;;;4.40;99.90;;;;;;4926453;29;20209;-71
2023/12/15 05:46:45;;;;;;;15.70;8.02;;;4.40;99.90;;;;;;4928026;29;20216;-71
2023/12/15 05:49:12;;;;;;;15.30;7.03;;;4.40;99.90;;;;;;4929777;29;20208;-71
2023/12/15 05:51:39;;;;;;;13.88;7.72;;;4.40;99.90;;;;;;4925301;29;20606;-71
2023/12/15 05:54:07;;;;;;;15.13;7.88;;;4.40;99.90;;;;;;4927765;29;20227;-71
2023/12/15 05:56:34;;;;;;;13.57;7.80;;;4.40;99.90;;;;;;4928020;29;20212;-71
2023/12/15 05:59:00;;;;;;;16.30;7.15;;;4.40;99.90;;;;;;4927588;29;20217;-71
2023/12/15 06:01:27;;;;;;;15.18;7.75;;;4.40;99.90;;;;;;4931642;29;20251;-71
2023/12/15 06:03:54;;;;;;;13.63;6.93;;;4.40;99.90;;;;;;4923521;29;20217;-71
2023/12/15 06:06:20;;;;;;;18.58;9.20;;;4.40;99.90;;;;;;4927485;29;20223;-72
2023/12/15 06:08:47;;;;;;;13.55;8.02;;;4.50;99.90;;;;;;4926146;29;20221;-72
2023/12/15 06:11:15;;;;;;;15.98;7.00;;;4.50;99.90;;;;;;4924979;29;20233;-72
2023/12/15 06:13:42;;;;;;;14.35;7.43;;;4.50;99.90;;;;;;4934337;29;20348;-71
2023/12/15 06:16:16;;;;;;;13.75;6.93;;;4.50;99.90;;;;;;4930236;29;20240;-73
2023/12/15 06:18:43;;;;;;;16.58;8.50;;;4.50;99.90;;;;;;4928973;29;20213;-73
2023/12/15 06:21:10;;;;;;;19.13;8.73;;;4.50;99.90;;;;;;4934183;29;20247;-72
2023/12/15 06:23:36;;;;;;;15.15;8.05;;;4.50;99.90;;;;;;4934671;29;20614;-74
2023/12/15 06:26:03;;;;;;;16.60;9.55;;;4.50;99.90;;;;;;4933940;29;20213;-72
2023/12/15 06:28:31;;;;;;;11.32;7.97;;;4.50;99.90;;;;;;4931909;29;20209;-72
2023/12/15 06:30:58;;;;;;;16.65;6.75;;;4.60;99.90;;;;;;4932664;29;20607;-71
2023/12/15 06:33:25;;;;;;;24.90;8.95;;;4.60;99.90;;;;;;4934353;29;20216;-73
2023/12/15 06:35:51;;;;;;;17.15;7.70;;;4.60;99.90;;;;;;4930704;29;20562;-73
2023/12/15 06:38:18;;;;;;;14.60;8.00;;;4.60;99.90;;;;;;4925165;29;20216;-74
2023/12/15 06:40:45;;;;;;;20.02;8.60;;;4.60;99.90;;;;;;4928090;29;20229;-74
2023/12/15 06:43:11;;;;;;;18.50;7.07;;;4.60;99.90;;;;;;4925820;29;20209;-73
2023/12/15 06:45:39;;;;;;;16.33;7.72;;;4.60;99.90;;;;;;4927901;29;20219;-74
2023/12/15 06:48:06;;;;;;;10.65;5.72;;;4.60;99.90;;;;;;4927904;29;20211;-73
2023/12/15 06:50:33;;;;;;;12.45;6.85;;;4.60;99.90;;;;;;4923417;29;20224;-75
2023/12/15 06:53:00;;;;;;;12.35;6.45;;;4.60;99.90;;;;;;4927389;29;20582;-74
2023/12/15 06:55:27;;;;;;;19.85;7.97;;;4.60;99.90;;;;;;4926485;29;20695;-74
2023/12/15 06:57:54;;;;;;;17.98;8.30;;;4.60;99.90;;;;;;4926857;29;20217;-73
2023/12/15 07:00:21;;;;;;;12.05;6.65;;;4.70;99.90;;;;;;4923669;29;20222;-73
2023/12/15 07:02:49;;;;;;;14.73;6.70;;;4.70;99.90;;;;;;4928659;29;20213;-72
2023/12/15 07:05:16;;;;;;;11.45;6.22;;;4.70;99.90;;;;;;4922193;29;20236;-72
2023/12/15 07:07:42;;;;;;;15.13;7.22;;;4.70;99.90;;;;;;4925586;29;20240;-71
2023/12/15 07:10:09;;;;;;;14.02;7.00;;;4.70;99.90;;;;;;4925529;29;20212;-73
2023/12/15 07:12:36;;;;;;;22.40;12.27;;;4.70;99.90;;;;;;4930355;29;20217;-72
2023/12/15 07:15:03;;;;;;;26.08;15.07;;;4.70;99.90;;;;;;4931207;29;20225;-72
2023/12/15 07:17:30;;;;;;;16.73;8.95;;;4.70;99.90;;;;;;4929569;29;20653;-71
2023/12/15 07:19:58;;;;;;;14.70;6.70;;;4.70;99.90;;;;;;4931348;29;20217;-72
2023/12/15 07:22:24;;;;;;;17.73;8.60;;;4.80;99.90;;;;;;4934161;29;20730;-72
2023/12/15 07:24:51;;;;;;;17.60;8.50;;;4.80;99.90;;;;;;4933658;29;20209;-72
2023/12/15 07:27:18;;;;;;;15.70;7.43;;;4.80;99.90;;;;;;4928650;29;20298;-73
2023/12/15 07:29:45;;;;;;;20.30;8.18;;;4.80;99.90;;;;;;4929536;29;20224;-72
2023/12/15 07:32:11;;;;;;;19.77;9.30;;;4.80;99.90;;;;;;4934001;29;20236;-72
2023/12/15 07:34:38;;;;;;;22.85;10.93;;;4.80;99.90;;;;;;4926496;29;20241;-73
2023/12/15 07:37:06;;;;;;;28.67;12.85;;;4.80;99.90;;;;;;4930430;29;20221;-72
2023/12/15 07:39:33;;;;;;;27.70;9.80;;;4.80;99.90;;;;;;4923893;29;20212;-72
2023/12/15 07:42:00;;;;;;;26.05;11.52;;;4.80;99.90;;;;;;4926028;29;20662;-72
2023/12/15 07:44:26;;;;;;;20.25;10.02;;;4.90;99.90;;;;;;4926233;29;20220;-71
2023/12/15 07:46:55;;;;;;;25.13;11.15;;;4.90;99.90;;;;;;4928151;29;20206;-72
2023/12/15 07:49:22;;;;;;;27.48;10.60;;;4.90;99.90;;;;;;4927631;29;20220;-71
2023/12/15 07:51:50;;;;;;;22.33;9.63;;;4.90;99.90;;;;;;4926101;29;20331;-72
2023/12/15 07:54:18;;;;;;;20.70;10.35;;;4.90;99.90;;;;;;4930661;29;20211;-72
2023/12/15 07:56:45;;;;;;;19.33;9.77;;;5.00;99.90;;;;;;4926818;29;20236;-72
2023/12/15 07:59:12;;;;;;;18.27;9.73;;;5.00;99.90;;;;;;4927031;29;20224;-72
2023/12/15 08:01:39;;;;;;;19.30;9.25;;;5.00;99.90;;;;;;4922786;29;20237;-72
2023/12/15 08:04:06;;;;;;;19.67;10.00;;;5.00;99.90;;;;;;4922885;29;20217;-71
2023/12/15 08:06:36;;;;;;;19.02;8.65;;;5.10;99.90;;;;;;4927166;29;20209;-71
2023/12/15 08:09:04;;;;;;;17.85;8.80;;;5.10;99.90;;;;;;4920000;29;20240;-71
2023/12/15 08:11:32;;;;;;;18.95;9.05;;;5.10;99.90;;;;;;4923354;29;20239;-72
2023/12/15 08:13:59;;;;;;;23.25;10.40;;;5.10;99.90;;;;;;4926092;29;20303;-72
2023/12/15 08:16:26;;;;;;;22.80;10.68;;;5.10;99.90;;;;;;4925907;29;20226;-72
2023/12/15 08:18:53;;;;;;;21.52;9.52;;;5.20;99.90;;;;;;4927633;29;20217;-72
2023/12/15 08:21:19;;;;;;;23.17;12.57;;;5.20;99.90;;;;;;4926131;29;20318;-72
2023/12/15 08:23:46;;;;;;;20.02;9.65;;;5.20;99.90;;;;;;4923020;29;20220;-72
2023/12/15 08:26:20;;;;;;;20.10;10.27;;;5.30;99.90;;;;;;4926285;29;20213;-73
2023/12/15 08:28:48;;;;;;;24.42;10.02;;;5.30;99.90;;;;;;4928109;29;20319;-74
2023/12/15 08:31:15;;;;;;;23.60;9.50;;;5.30;99.90;;;;;;4925520;29;20233;-73
2023/12/15 08:33:42;;;;;;;23.80;9.90;;;5.30;99.90;;;;;;4928657;29;20275;-71
2023/12/15 08:36:10;;;;;;;25.45;10.18;;;5.30;99.90;;;;;;4924659;29;20233;-72
2023/12/15 08:38:37;;;;;;;32.45;11.80;;;5.40;99.90;;;;;;4928735;29;20215;-72
2023/12/15 08:41:04;;;;;;;33.28;11.68;;;5.40;99.90;;;;;;4928518;29;20240;-72
2023/12/15 08:43:31;;;;;;;32.97;12.65;;;5.40;99.90;;;;;;4929909;29;20248;-72
2023/12/15 08:45:59;;;;;;;19.40;9.85;;;5.40;99.90;;;;;;4919187;29;20214;-72
2023/12/15 08:48:26;;;;;;;33.22;10.77;;;5.40;99.90;;;;;;4921151;29;20205;-72
2023/12/15 08:50:53;;;;;;;26.00;9.50;;;5.40;99.90;;;;;;4927506;29;20256;-72
2023/12/15 08:53:19;;;;;;;29.50;12.43;;;5.50;99.90;;;;;;4931249;29;20217;-72
2023/12/15 08:55:46;;;;;;;31.70;10.70;;;5.50;99.90;;;;;;4932372;29;20243;-73
2023/12/15 08:58:13;;;;;;;25.23;11.73;;;5.50;99.90;;;;;;4924449;29;20209;-73
2023/12/15 09:00:40;;;;;;;27.42;10.38;;;5.60;99.90;;;;;;4926489;29;20691;-73
2023/12/15 09:03:08;;;;;;;21.70;10.75;;;5.60;99.90;;;;;;4928492;29;20206;-73
2023/12/15 09:05:35;;;;;;;26.00;13.20;;;5.60;99.90;;;;;;4929141;29;20226;-73
2023/12/15 09:08:02;;;;;;;25.90;9.80;;;5.60;99.90;;;;;;4927100;29;20212;-72
2023/12/15 09:10:33;;;;;;;30.55;11.77;;;5.60;99.90;;;;;;4926383;29;20226;-73
2023/12/15 09:13:01;;;;;;;33.08;12.68;;;5.70;99.90;;;;;;4928670;29;20740;-73
2023/12/15 09:15:28;;;;;;;23.45;9.15;;;5.70;99.90;;;;;;4927912;29;20247;-73
2023/12/15 09:17:55;;;;;;;24.17;11.95;;;5.70;99.90;;;;;;4929114;29;20218;-73
2023/12/15 09:20:24;;;;;;;21.15;10.95;;;5.80;99.90;;;;;;4924906;29;20687;-73
2023/12/15 09:22:54;;;;;;;28.10;10.98;;;5.80;99.90;;;;;;4928745;29;20235;-73
2023/12/15 09:25:20;;;;;;;21.75;10.38;;;5.80;99.90;;;;;;4928334;29;20210;-73
2023/12/15 09:27:47;;;;;;;22.73;9.80;;;5.90;99.90;;;;;;4930357;29;20206;-72
2023/12/15 09:30:14;;;;;;;22.95;9.90;;;5.90;99.90;;;;;;4928927;29;20210;-73
2023/12/15 09:32:41;;;;;;;28.65;12.95;;;5.90;99.90;;;;;;4929912;29;20214;-73
2023/12/15 09:35:08;;;;;;;24.77;11.10;;;5.90;99.90;;;;;;4928882;29;20233;-72
2023/12/15 09:37:36;;;;;;;27.33;9.55;;;6.00;99.90;;;;;;4933142;29;20206;-72
2023/12/15 09:40:02;;;;;;;19.70;10.52;;;6.00;99.90;;;;;;4932517;29;20206;-72
2023/12/15 09:42:29;;;;;;;21.23;10.02;;;6.00;99.90;;;;;;4934282;29;20703;-72
2023/12/15 09:44:56;;;;;;;24.27;10.02;;;6.00;99.90;;;;;;4928612;29;20653;-72
2023/12/15 09:47:23;;;;;;;18.98;9.73;;;6.10;99.90;;;;;;4926473;29;20206;-72
2023/12/15 09:49:53;;;;;;;24.52;10.25;;;6.20;99.90;;;;;;4928223;29;20225;-72
2023/12/15 09:52:22;;;;;;;25.77;12.18;;;6.20;99.90;;;;;;4923201;29;20233;-72
2023/12/15 09:54:51;;;;;;;27.58;11.05;;;6.20;99.90;;;;;;4927132;29;20217;-72
2023/12/15 09:57:18;;;;;;;24.67;10.50;;;6.20;99.90;;;;;;4932182;29;20257;-73
2023/12/15 09:59:45;;;;;;;21.40;10.88;;;6.30;99.90;;;;;;4927015;29;20234;-72
2023/12/15 10:02:12;;;;;;;30.58;11.20;;;6.30;99.90;;;;;;4927677;29;20237;-72
2023/12/15 10:04:39;;;;;;;26.42;11.38;;;6.30;99.90;;;;;;4925861;29;20229;-72
2023/12/15 10:07:05;;;;;;;27.80;11.70;;;6.40;99.90;;;;;;4927899;29;20206;-72
2023/12/15 10:09:32;;;;;;;31.35;11.57;;;6.50;99.90;;;;;;4927207;29;20206;-72
2023/12/15 10:12:00;;;;;;;28.73;11.82;;;6.50;99.90;;;;;;4925518;29;20650;-72
2023/12/15 10:14:27;;;;;;;28.92;13.20;;;6.60;99.90;;;;;;4926950;29;20221;-71
2023/12/15 10:16:54;;;;;;;28.00;11.32;;;6.60;99.90;;;;;;4931105;29;20230;-72
2023/12/15 10:19:25;;;;;;;29.77;11.82;;;6.60;99.90;;;;;;4931679;29;20210;-72
2023/12/15 10:21:52;;;;;;;28.17;11.77;;;6.60;99.90;;;;;;4930004;29;20800;-72
2023/12/15 10:24:19;;;;;;;31.10;10.18;;;6.60;99.90;;;;;;4931267;29;20217;-72
2023/12/15 10:26:46;;;;;;;30.60;12.55;;;6.60;99.90;;;;;;4925107;29;20258;-72
2023/12/15 10:29:15;;;;;;;19.73;9.35;;;6.60;99.90;;;;;;4930405;29;20218;-72
2023/12/15 10:31:42;;;;;;;31.75;10.45;;;6.70;99.90;;;;;;4925403;29;20284;-72
2023/12/15 10:34:09;;;;;;;33.10;10.88;;;6.70;99.90;;;;;;4927583;29;20230;-72
2023/12/15 10:36:40;;;;;;;28.05;11.38;;;6.70;99.90;;;;;;4926885;29;20234;-72
2023/12/15 10:39:07;;;;;;;29.38;11.73;;;6.80;99.90;;;;;;4922838;29;20301;-73
2023/12/15 10:41:35;;;;;;;25.67;10.00;;;6.80;99.90;;;;;;4922837;29;20256;-73
2023/12/15 10:44:03;;;;;;;26.98;11.90;;;6.90;99.90;;;;;;4927746;29;20626;-73
2023/12/15 10:46:33;;;;;;;24.50;10.48;;;6.90;99.90;;;;;;4925012;29;20704;-74
2023/12/15 10:49:01;;;;;;;25.75;10.75;;;6.90;99.90;;;;;;4924814;29;20218;-74
2023/12/15 10:51:28;;;;;;;26.50;10.98;;;7.00;99.90;;;;;;4928266;29;20245;-73
2023/12/15 10:53:56;;;;;;;23.27;11.90;;;7.00;99.90;;;;;;4923401;29;20210;-73
2023/12/15 10:56:26;;;;;;;30.83;9.38;;;7.10;99.90;;;;;;4921951;29;20237;-73
2023/12/15 10:58:55;;;;;;;22.90;12.10;;;7.20;99.90;;;;;;4926426;29;20224;-73
2023/12/15 11:01:23;;;;;;;28.45;12.45;;;7.30;99.90;;;;;;4927413;29;20246;-73
2023/12/15 11:03:51;;;;;;;27.92;11.82;;;7.40;99.90;;;;;;4926723;29;20230;-73
2023/12/15 11:06:27;;;;;;;27.70;10.50;;;7.40;99.90;;;;;;4921223;29;20198;-73
2023/12/15 11:08:59;;;;;;;22.30;11.00;;;7.40;99.90;;;;;;4929124;29;20224;-73
2023/12/15 11:11:25;;;;;;;23.42;9.15;;;7.40;99.90;;;;;;4930241;29;20241;-73
2023/12/15 11:14:01;;;;;;;29.75;10.75;;;7.40;99.90;;;;;;4930963;29;20225;-73
2023/12/15 11:16:29;;;;;;;20.65;10.63;;;7.40;99.90;;;;;;4929352;29;20234;-73
2023/12/15 11:18:59;;;;;;;25.40;10.70;;;7.50;99.90;;;;;;4926951;29;20572;-73
2023/12/15 11:21:26;;;;;;;32.33;14.35;;;7.50;99.90;;;;;;4927708;29;20233;-73
2023/12/15 11:23:58;;;;;;;27.85;10.82;;;7.50;99.90;;;;;;4930732;29;20218;-72
2023/12/15 11:26:29;;;;;;;27.45;9.85;;;7.60;99.90;;;;;;4929066;29;20226;-73
2023/12/15 11:29:07;;;;;;;24.63;11.50;;;7.60;99.90;;;;;;4928734;29;20214;-73
2023/12/15 11:31:35;;;;;;;24.67;10.70;;;7.70;99.90;;;;;;4915350;29;20309;-71
2023/12/15 11:34:04;;;;;;;24.92;10.65;;;7.70;99.90;;;;;;4928507;29;20835;-74
2023/12/15 11:36:32;;;;;;;21.67;10.07;;;7.70;99.90;;;;;;4929388;29;20343;-73
2023/12/15 11:38:59;;;;;;;23.75;8.95;;;7.70;99.90;;;;;;4924658;29;20237;-72
2023/12/15 11:41:26;;;;;;;23.52;10.60;;;7.80;99.90;;;;;;4928206;29;20222;-73
2023/12/15 11:43:53;;;;;;;27.42;10.32;;;7.80;99.90;;;;;;4928266;29;20209;-72
2023/12/15 11:46:22;;;;;;;21.40;10.73;;;7.80;99.90;;;;;;4925805;29;20209;-72
2023/12/15 11:48:48;;;;;;;25.52;9.70;;;7.80;99.90;;;;;;4929803;29;20211;-70
2023/12/15 11:51:17;;;;;;;26.15;10.18;;;7.80;99.90;;;;;;4929034;29;20736;-73
2023/12/15 11:53:48;;;;;;;18.77;9.75;;;7.80;99.90;;;;;;4929255;29;20248;-72
2023/12/15 11:56:17;;;;;;;23.95;11.35;;;7.80;99.90;;;;;;4925734;29;20225;-72
2023/12/15 11:58:44;;;;;;;19.48;10.00;;;7.90;99.90;;;;;;4930722;29;20228;-73
2023/12/15 12:01:11;;;;;;;26.40;10.20;;;7.90;99.90;;;;;;4926725;29;20230;-69
2023/12/15 12:03:38;;;;;;;23.65;9.45;;;7.90;99.90;;;;;;4925944;29;20215;-72
2023/12/15 12:06:08;;;;;;;30.85;12.15;;;7.90;99.90;;;;;;4930427;29;20579;-72
2023/12/15 12:08:36;;;;;;;24.92;9.35;;;7.90;99.90;;;;;;4929997;29;20216;-72
2023/12/15 12:11:05;;;;;;;21.83;10.50;;;7.90;99.90;;;;;;4930461;29;20253;-72
2023/12/15 12:13:34;;;;;;;25.23;9.65;;;7.90;99.90;;;;;;4927954;29;20264;-73
2023/12/15 12:16:01;;;;;;;26.13;8.70;;;7.90;99.90;;;;;;4930167;29;20210;-73
2023/12/15 12:18:29;;;;;;;18.33;8.55;;;7.90;99.90;;;;;;4927776;29;20615;-73
2023/12/15 12:20:57;;;;;;;21.58;10.38;;;7.90;99.90;;;;;;4918951;29;20240;-73
2023/12/15 12:23:24;;;;;;;30.15;9.48;;;7.90;99.90;;;;;;4929510;29;20217;-72
2023/12/15 12:25:53;;;;;;;27.85;10.60;;;7.90;99.90;;;;;;4931273;29;20218;-71
2023/12/15 12:28:20;;;;;;;27.15;10.85;;;7.90;99.90;;;;;;4931367;29;20222;-72
2023/12/15 12:30:48;;;;;;;19.45;10.95;;;7.90;99.90;;;;;;4919214;29;20586;-72
2023/12/15 12:33:16;;;;;;;15.23;8.85;;;7.90;99.90;;;;;;4924453;29;20741;-73
2023/12/15 12:35:43;;;;;;;22.20;10.35;;;8.00;99.90;;;;;;4920926;29;20314;-73
2023/12/15 12:38:10;;;;;;;19.92;9.40;;;8.00;99.90;;;;;;4919864;29;20302;-72
2023/12/15 12:40:37;;;;;;;18.92;8.95;;;8.00;99.90;;;;;;4913849;29;20223;-72
2023/12/15 12:43:05;;;;;;;25.48;9.05;;;8.00;99.90;;;;;;4921491;29;20211;-72
2023/12/15 12:45:32;;;;;;;27.40;9.02;;;8.00;99.90;;;;;;4922896;29;20203;-72
2023/12/15 12:47:59;;;;;;;18.15;10.15;;;8.10;99.90;;;;;;4924600;29;20222;-73
2023/12/15 12:50:25;;;;;;;21.58;11.45;;;8.10;99.90;;;;;;4924243;29;20215;-72
2023/12/15 12:52:52;;;;;;;29.02;12.13;;;8.10;99.90;;;;;;4922114;29;20630;-73
2023/12/15 12:55:19;;;;;;;25.23;9.98;;;8.10;99.90;;;;;;4925198;29;20306;-72
2023/12/15 12:57:47;;;;;;;26.63;9.52;;;8.10;99.90;;;;;;4927510;29;20231;-72
2023/12/15 13:00:18;;;;;;;24.42;9.88;;;8.10;99.90;;;;;;4926974;29;20210;-72
2023/12/15 13:02:45;;;;;;;24.50;9.43;;;8.10;99.90;;;;;;4933494;29;20210;-72
2023/12/15 13:05:12;;;;;;;20.25;8.90;;;8.10;99.90;;;;;;4928998;29;20217;-72
2023/12/15 13:07:39;;;;;;;18.92;9.93;;;8.10;99.90;;;;;;4930372;29;20203;-74
2023/12/15 13:10:08;;;;;;;20.70;9.50;;;8.10;99.90;;;;;;4926863;29;20207;-73
2023/12/15 13:12:35;;;;;;;18.00;9.60;;;8.20;99.90;;;;;;4933073;29;20282;-73
2023/12/15 13:15:02;;;;;;;16.30;8.52;;;8.10;99.90;;;;;;4934234;29;20761;-73
2023/12/15 13:17:30;;;;;;;26.17;9.55;;;8.10;99.90;;;;;;4933827;29;20321;-73
2023/12/15 13:19:57;;;;;;;19.90;8.68;;;8.10;99.90;;;;;;4934603;29;20252;-72
2023/12/15 13:22:27;;;;;;;15.35;8.85;;;8.10;99.90;;;;;;4932180;29;20239;-73
2023/12/15 13:24:54;;;;;;;22.23;9.35;;;8.10;99.90;;;;;;4930174;29;20217;-73
2023/12/15 13:27:21;;;;;;;21.70;7.45;;;8.10;99.90;;;;;;4927793;29;20208;-73
2023/12/15 13:29:48;;;;;;;20.23;8.35;;;8.10;99.90;;;;;;4931941;29;20232;-73
2023/12/15 13:32:16;;;;;;;28.17;9.98;;;8.10;99.90;;;;;;4931890;29;20226;-73
2023/12/15 13:34:45;;;;;;;14.70;8.43;;;8.10;99.90;;;;;;4927234;29;20597;-73
2023/12/15 13:37:12;;;;;;;21.17;8.73;;;8.10;99.90;;;;;;4919268;29;20229;-73
2023/12/15 13:39:39;;;;;;;17.67;6.70;;;8.10;99.90;;;;;;4924622;29;20307;-73
2023/12/15 13:42:06;;;;;;;16.35;8.07;;;8.10;99.90;;;;;;4927297;29;20227;-73
2023/12/15 13:44:32;;;;;;;16.30;9.00;;;8.10;99.90;;;;;;4919805;29;20220;-73
2023/12/15 13:46:59;;;;;;;18.63;8.52;;;8.10;99.90;;;;;;4929651;29;20206;-73
2023/12/15 13:49:27;;;;;;;19.10;8.05;;;8.10;99.90;;;;;;4928004;29;20223;-73
2023/12/15 13:51:55;;;;;;;21.27;7.85;;;8.10;99.90;;;;;;4922064;29;20227;-73
2023/12/15 13:54:22;;;;;;;20.17;7.95;;;8.10;99.90;;;;;;4918025;29;20215;-73
2023/12/15 13:56:49;;;;;;;22.75;8.25;;;8.10;99.90;;;;;;4934770;29;20322;-72
2023/12/15 13:59:16;;;;;;;18.95;7.93;;;8.00;99.90;;;;;;4930658;29;20210;-73
2023/12/15 14:01:42;;;;;;;11.70;6.90;;;8.00;99.90;;;;;;4924328;29;20238;-73
2023/12/15 14:04:10;;;;;;;11.02;6.10;;;8.00;99.90;;;;;;4927019;29;20217;-73
2023/12/15 14:06:36;;;;;;;16.83;6.78;;;8.00;99.90;;;;;;4931607;29;20214;-73
2023/12/15 14:09:06;;;;;;;15.25;7.22;;;8.00;99.90;;;;;;4927397;29;20210;-73
2023/12/15 14:11:33;;;;;;;20.15;7.50;;;8.00;99.90;;;;;;4926775;29;20289;-73
2023/12/15 14:14:00;;;;;;;17.48;7.25;;;8.00;99.90;;;;;;4924553;29;20214;-73
2023/12/15 14:16:27;;;;;;;13.00;6.63;;;8.00;99.90;;;;;;4921521;29;20202;-74
2023/12/15 14:18:53;;;;;;;12.50;6.40;;;8.00;99.90;;;;;;4919724;29;20211;-73
2023/12/15 14:21:20;;;;;;;18.13;7.65;;;8.00;99.90;;;;;;4920123;29;20226;-73
2023/12/15 14:23:47;;;;;;;14.70;8.10;;;8.00;99.90;;;;;;4934016;29;20214;-73
2023/12/15 14:26:15;;;;;;;12.48;6.90;;;8.00;99.90;;;;;;4935238;29;20216;-73
2023/12/15 14:28:43;;;;;;;21.52;7.10;;;8.00;99.90;;;;;;4933665;29;20207;-73
2023/12/15 14:31:09;;;;;;;21.10;7.60;;;8.00;99.90;;;;;;4929157;29;21195;-73
2023/12/15 14:33:36;;;;;;;7.80;6.63;;;7.90;99.90;;;;;;4925857;29;20206;-73
2023/12/15 14:36:03;;;;;;;18.98;7.45;;;7.90;99.90;;;;;;4922949;29;20218;-73
2023/12/15 14:38:30;;;;;;;10.95;6.25;;;7.90;99.90;;;;;;4922827;29;21842;-73
2023/12/15 14:40:57;;;;;;;9.50;6.10;;;7.90;99.90;;;;;;4920275;29;20226;-73
2023/12/15 14:43:25;;;;;;;14.23;6.80;;;7.90;99.90;;;;;;4920397;29;20620;-73
2023/12/15 14:45:52;;;;;;;10.48;6.25;;;7.90;99.90;;;;;;4923524;29;20237;-73
2023/12/15 14:48:19;;;;;;;18.23;7.55;;;7.80;99.90;;;;;;4917361;29;20204;-73
2023/12/15 14:50:46;;;;;;;13.05;8.23;;;7.90;99.90;;;;;;4926710;29;20233;-73
2023/12/15 14:53:13;;;;;;;13.45;7.53;;;7.90;99.90;;;;;;4928869;29;20580;-73
2023/12/15 14:55:40;;;;;;;12.68;6.30;;;7.90;99.90;;;;;;4932583;29;20221;-73
2023/12/15 14:58:06;;;;;;;13.98;6.03;;;7.80;99.90;;;;;;4925202;29;20717;-72
2023/12/15 15:00:35;;;;;;;10.48;7.03;;;7.80;99.90;;;;;;4919242;29;20253;-73
2023/12/15 15:03:02;;;;;;;7.30;5.70;;;7.80;99.90;;;;;;4924276;29;20215;-72
2023/12/15 15:05:29;;;;;;;26.73;7.95;;;7.80;99.90;;;;;;4922922;29;20207;-73
2023/12/15 15:07:55;;;;;;;15.32;6.07;;;7.80;99.90;;;;;;4921956;29;20209;-72
2023/12/15 15:10:22;;;;;;;11.43;6.60;;;7.80;99.90;;;;;;4924366;29;20225;-73
2023/12/15 15:12:49;;;;;;;11.65;6.38;;;7.80;99.90;;;;;;4927773;29;20240;-73
2023/12/15 15:15:15;;;;;;;11.00;6.75;;;7.80;99.90;;;;;;4929520;29;20242;-72
2023/12/15 15:17:43;;;;;;;18.58;6.22;;;7.80;99.90;;;;;;4922645;29;20679;-73
2023/12/15 15:20:11;;;;;;;16.52;6.60;;;7.80;99.90;;;;;;4918992;29;20515;-73
2023/12/15 15:22:38;;;;;;;9.93;6.07;;;7.80;99.90;;;;;;4923225;29;20234;-73
2023/12/15 15:25:06;;;;;;;19.15;6.35;;;7.80;99.90;;;;;;4923118;29;20205;-73
2023/12/15 15:27:32;;;;;;;16.85;7.22;;;7.80;99.90;;;;;;4925096;29;20210;-73
2023/12/15 15:29:59;;;;;;;9.43;4.90;;;7.80;99.90;;;;;;4921815;29;20213;-73
2023/12/15 15:32:26;;;;;;;12.20;6.00;;;7.80;99.90;;;;;;4923743;29;20234;-73
2023/12/15 15:34:54;;;;;;;7.38;5.07;;;7.70;99.90;;;;;;4925710;29;20217;-73
2023/12/15 15:37:20;;;;;;;19.83;7.05;;;7.70;99.90;;;;;;4921956;29;20222;-73
2023/12/15 15:39:47;;;;;;;10.05;5.75;;;7.70;99.90;;;;;;4928610;29;20217;-73
2023/12/15 15:42:14;;;;;;;20.38;6.38;;;7.70;99.90;;;;;;4921504;29;20229;-73
2023/12/15 15:44:40;;;;;;;15.55;6.57;;;7.70;99.90;;;;;;4917016;29;20221;-73
2023/12/15 15:47:07;;;;;;;16.17;7.25;;;7.70;99.90;;;;;;4917961;29;20211;-73
2023/12/15 15:49:36;;;;;;;12.18;6.00;;;7.70;99.90;;;;;;4928639;29;20531;-72
2023/12/15 15:52:04;;;;;;;10.07;5.57;;;7.70;99.90;;;;;;4921730;29;20254;-73
2023/12/15 15:54:31;;;;;;;8.75;5.95;;;7.70;99.90;;;;;;4923446;29;20269;-72
2023/12/15 15:56:58;;;;;;;10.85;7.00;;;7.70;99.90;;;;;;4924434;29;20209;-72
2023/12/15 15:59:24;;;;;;;9.00;5.68;;;7.70;99.90;;;;;;4925588;29;20672;-73
2023/12/15 16:01:51;;;;;;;11.70;5.90;;;7.70;99.90;;;;;;4921703;29;20257;-72
2023/12/15 16:04:19;;;;;;;11.18;5.80;;;7.70;99.90;;;;;;4922116;29;20256;-73
2023/12/15 16:06:46;;;;;;;13.68;6.40;;;7.70;99.90;;;;;;4918710;29;20214;-72
2023/12/15 16:09:14;;;;;;;20.77;7.72;;;7.70;99.90;;;;;;4920005;29;20206;-72
2023/12/15 16:11:40;;;;;;;12.65;7.20;;;7.70;99.90;;;;;;4920679;29;20229;-73
2023/12/15 16:14:07;;;;;;;21.75;7.90;;;7.70;99.90;;;;;;4925842;29;20253;-73
2023/12/15 16:16:34;;;;;;;9.75;6.90;;;7.70;99.90;;;;;;4921650;29;20209;-71
2023/12/15 16:19:00;;;;;;;14.35;5.68;;;7.70;99.90;;;;;;4919316;29;20234;-72
2023/12/15 16:21:27;;;;;;;8.40;6.05;;;7.70;99.90;;;;;;4920738;29;20251;-73
2023/12/15 16:23:54;;;;;;;8.90;5.45;;;7.70;99.90;;;;;;4926647;29;20210;-73
2023/12/15 16:26:22;;;;;;;10.80;6.28;;;7.70;99.90;;;;;;4926650;29;20206;-73
2023/12/15 16:28:48;;;;;;;9.23;6.47;;;7.70;99.90;;;;;;4927147;29;20202;-72
2023/12/15 16:31:16;;;;;;;17.63;6.25;;;7.70;99.90;;;;;;4925527;29;20238;-72
2023/12/15 16:33:42;;;;;;;9.80;5.40;;;7.70;99.90;;;;;;4916554;29;20721;-72
2023/12/15 16:36:19;;;;;;;6.00;5.32;;;7.70;99.90;;;;;;4926746;29;20220;-72
2023/12/15 16:38:46;;;;;;;8.13;6.38;;;7.70;99.90;;;;;;4932945;29;20231;-72
2023/12/15 16:41:23;;;;;;;8.40;5.53;;;7.70;99.90;;;;;;4927176;29;20225;-72
2023/12/15 16:43:50;;;;;;;6.55;4.95;;;7.70;99.90;;;;;;4929283;29;20234;-72
2023/12/15 16:46:16;;;;;;;10.40;5.93;;;7.70;99.90;;;;;;4929203;29;20212;-73
2023/12/15 16:48:44;;;;;;;16.02;5.43;;;7.70;99.90;;;;;;4926244;29;20209;-73
2023/12/15 16:51:11;;;;;;;14.32;6.50;;;7.60;99.90;;;;;;4925716;29;20700;-73
2023/12/15 16:53:38;;;;;;;21.13;6.88;;;7.70;99.90;;;;;;4932680;29;20233;-73
2023/12/15 16:56:05;;;;;;;15.23;6.32;;;7.70;99.90;;;;;;4921197;29;20206;-73
2023/12/15 16:58:33;;;;;;;12.48;5.40;;;7.70;99.90;;;;;;4929005;29;20229;-74
2023/12/15 17:01:00;;;;;;;12.13;6.72;;;7.70;99.90;;;;;;4926355;29;20735;-74
2023/12/15 17:03:26;;;;;;;14.50;5.95;;;7.70;99.90;;;;;;4933599;29;20229;-73
2023/12/15 17:05:53;;;;;;;20.67;5.75;;;7.70;99.90;;;;;;4925781;29;20248;-74
2023/12/15 17:08:20;;;;;;;11.75;5.75;;;7.70;99.90;;;;;;4930698;29;20540;-74
2023/12/15 17:10:47;;;;;;;10.10;5.18;;;7.70;99.90;;;;;;4932456;29;20254;-73
2023/12/15 17:13:14;;;;;;;15.70;4.80;;;7.70;99.90;;;;;;4933090;29;20217;-74
2023/12/15 17:15:43;;;;;;;5.80;5.20;;;7.60;99.90;;;;;;4935254;29;20265;-74
2023/12/15 17:18:10;;;;;;;8.13;5.88;;;7.60;99.90;;;;;;4933847;29;20341;-74
2023/12/15 17:20:36;;;;;;;8.52;5.53;;;7.70;99.90;;;;;;4932029;29;20225;-74
2023/12/15 17:23:04;;;;;;;8.93;5.38;;;7.70;99.90;;;;;;4934024;29;20218;-74
2023/12/15 17:25:32;;;;;;;11.00;6.78;;;7.70;99.90;;;;;;4939142;29;20293;-73
2023/12/15 17:27:59;;;;;;;11.93;5.60;;;7.70;99.90;;;;;;4939190;29;20677;-74
2023/12/15 17:30:25;;;;;;;28.42;5.95;;;7.70;99.90;;;;;;4938935;29;20213;-74
2023/12/15 17:32:53;;;;;;;15.55;5.57;;;7.70;99.90;;;;;;4939643;29;20213;-75
2023/12/15 17:35:20;;;;;;;10.35;5.18;;;7.70;99.90;;;;;;4932248;29;20215;-74
2023/12/15 17:37:47;;;;;;;13.63;5.68;;;7.70;99.90;;;;;;4940161;29;20246;-74
2023/12/15 17:40:14;;;;;;;8.40;5.22;;;7.70;99.90;;;;;;4938035;29;20270;-74
2023/12/15 17:42:41;;;;;;;11.82;4.97;;;7.70;99.90;;;;;;4939273;29;20210;-73
2023/12/15 17:45:08;;;;;;;15.40;4.97;;;7.70;99.90;;;;;;4941826;29;20217;-75
2023/12/15 17:47:35;;;;;;;9.65;4.70;;;7.70;99.90;;;;;;4943608;29;20210;-74